createdAt,value
2022-11-19T00:01:19.100Z,4.10
2022-11-19T00:03:49.979Z,4.00
2022-11-19T00:06:21.694Z,4.00
2022-11-19T00:08:48.773Z,4.00
2022-11-19T00:11:41.084Z,4.10
2022-11-19T00:14:12.675Z,4.00
2022-11-19T00:16:40.144Z,4.10
2022-11-19T00:19:07.971Z,4.10
2022-11-19T00:21:34.739Z,4.10
2022-11-19T00:24:02.537Z,4.10
2022-11-19T00:26:29.321Z,4.00
2022-11-19T00:28:56.030Z,4.10
2022-11-19T00:31:24.358Z,4.00
2022-11-19T00:33:51.389Z,4.00
2022-11-19T00:36:18.456Z,4.00
2022-11-19T00:38:45.393Z,4.00
2022-11-19T00:41:12.154Z,3.90
2022-11-19T00:43:48.525Z,3.90
2022-11-19T00:46:16.467Z,3.80
2022-11-19T00:48:43.688Z,3.80
2022-11-19T00:51:10.625Z,3.80
2022-11-19T00:53:37.972Z,3.80
2022-11-19T00:56:10.335Z,3.80
2022-11-19T00:58:37.754Z,3.80
2022-11-19T01:01:05.371Z,3.80
2022-11-19T01:03:32.175Z,3.70
2022-11-19T01:05:59.439Z,3.70
2022-11-19T01:08:26.649Z,3.70
2022-11-19T01:10:53.345Z,3.70
2022-11-19T01:13:34.958Z,3.70
2022-11-19T01:16:09.073Z,3.60
2022-11-19T01:18:37.114Z,3.60
2022-11-19T01:21:05.200Z,3.50
2022-11-19T01:23:33.368Z,3.50
2022-11-19T01:26:00.489Z,3.40
2022-11-19T01:28:27.451Z,3.40
2022-11-19T01:30:54.243Z,3.30
2022-11-19T01:33:22.519Z,3.30
2022-11-19T01:36:00.763Z,3.30
2022-11-19T01:38:28.659Z,3.20
2022-11-19T01:40:56.155Z,3.20
2022-11-19T01:43:42.893Z,3.20
2022-11-19T01:46:12.270Z,3.10
2022-11-19T01:48:44.934Z,3.10
2022-11-19T01:51:14.750Z,3.10
2022-11-19T01:53:45.466Z,3.10
2022-11-19T01:56:13.168Z,3.10
2022-11-19T01:58:46.212Z,3.10
2022-11-19T02:01:14.023Z,3.00
2022-11-19T02:03:41.347Z,3.10
2022-11-19T02:06:08.529Z,3.10
2022-11-19T02:08:42.941Z,3.00
2022-11-19T02:11:18.760Z,3.00
2022-11-19T02:13:57.703Z,3.00
2022-11-19T02:16:33.000Z,2.90
2022-11-19T02:19:28.083Z,3.00
2022-11-19T02:22:15.923Z,3.10
2022-11-19T02:25:15.757Z,3.00
2022-11-19T02:28:04.003Z,3.00
2022-11-19T02:30:43.257Z,3.00
2022-11-19T02:33:17.462Z,3.00
2022-11-19T02:36:00.257Z,3.00
2022-11-19T02:38:56.347Z,3.00
2022-11-19T02:41:36.904Z,2.90
2022-11-19T02:44:31.891Z,2.90
2022-11-19T02:47:02.434Z,2.90
2022-11-19T02:49:33.766Z,2.80
2022-11-19T02:52:01.093Z,2.80
2022-11-19T02:54:28.436Z,2.80
2022-11-19T02:57:00.438Z,2.90
2022-11-19T02:59:54.853Z,2.90
2022-11-19T03:02:41.884Z,2.80
2022-11-19T03:05:14.145Z,2.70
2022-11-19T03:07:40.952Z,2.80
2022-11-19T03:10:10.272Z,2.80
2022-11-19T03:13:29.331Z,2.70
2022-11-19T03:16:18.899Z,2.70
2022-11-19T03:18:50.823Z,2.70
2022-11-19T03:21:25.645Z,2.60
2022-11-19T03:24:09.044Z,2.60
2022-11-19T03:26:41.379Z,2.60
2022-11-19T03:29:11.475Z,2.60
2022-11-19T03:31:41.756Z,2.70
2022-11-19T03:34:15.379Z,2.60
2022-11-19T03:36:44.287Z,2.60
2022-11-19T03:39:15.866Z,2.60
2022-11-19T03:41:49.491Z,2.60
2022-11-19T03:44:31.553Z,2.60
2022-11-19T03:47:02.779Z,2.60
2022-11-19T03:49:40.160Z,2.70
2022-11-19T03:52:10.595Z,2.70
2022-11-19T03:54:39.087Z,2.50
2022-11-19T03:57:07.768Z,2.60
2022-11-19T03:59:35.104Z,2.60
2022-11-19T04:02:08.029Z,2.60
2022-11-19T04:04:37.630Z,2.50
2022-11-19T04:07:04.387Z,2.60
2022-11-19T04:09:31.166Z,2.50
2022-11-19T04:11:57.859Z,2.50
2022-11-19T04:14:27.446Z,2.50
2022-11-19T04:16:54.267Z,2.50
2022-11-19T04:19:21.192Z,2.40
2022-11-19T04:21:48.266Z,2.40
2022-11-19T04:24:15.584Z,2.40
2022-11-19T04:26:42.495Z,2.30
2022-11-19T04:29:09.301Z,2.30
2022-11-19T04:31:36.106Z,2.20
2022-11-19T04:34:02.915Z,2.20
2022-11-19T04:36:29.799Z,2.20
2022-11-19T04:38:56.485Z,2.20
2022-11-19T04:41:23.584Z,2.10
2022-11-19T04:43:50.306Z,2.20
2022-11-19T04:46:16.995Z,2.10
2022-11-19T04:48:43.686Z,2.20
2022-11-19T04:51:10.362Z,2.20
2022-11-19T04:53:37.034Z,2.10
2022-11-19T04:56:03.901Z,2.10
2022-11-19T04:58:30.577Z,2.10
2022-11-19T05:00:57.400Z,2.00
2022-11-19T05:03:24.198Z,2.00
2022-11-19T05:05:50.996Z,2.00
2022-11-19T05:08:17.776Z,1.90
2022-11-19T05:10:45.307Z,1.90
2022-11-19T05:13:12.096Z,1.90
2022-11-19T05:15:38.750Z,1.90
2022-11-19T05:18:05.502Z,1.90
2022-11-19T05:20:32.243Z,1.90
2022-11-19T05:22:59.010Z,1.90
2022-11-19T05:25:25.801Z,1.80
2022-11-19T05:27:52.756Z,1.80
2022-11-19T05:30:19.475Z,1.80
2022-11-19T05:32:47.399Z,1.80
2022-11-19T05:35:14.491Z,1.80
2022-11-19T05:37:41.293Z,1.80
2022-11-19T05:40:08.902Z,1.80
2022-11-19T05:42:35.633Z,1.80
2022-11-19T05:45:02.292Z,1.80
2022-11-19T05:47:28.990Z,1.70
2022-11-19T05:49:55.661Z,1.60
2022-11-19T05:52:22.346Z,1.50
2022-11-19T05:54:49.052Z,1.50
2022-11-19T05:57:15.841Z,1.50
2022-11-19T05:59:44.239Z,1.50
2022-11-19T06:02:11.410Z,1.50
2022-11-19T06:04:38.140Z,1.60
2022-11-19T06:07:07.012Z,1.60
2022-11-19T06:09:33.815Z,1.50
2022-11-19T06:12:00.489Z,1.40
2022-11-19T06:14:27.985Z,1.40
2022-11-19T06:16:58.517Z,1.30
2022-11-19T06:19:26.326Z,1.20
2022-11-19T06:21:53.603Z,1.20
2022-11-19T06:24:21.179Z,1.20
2022-11-19T06:26:48.059Z,1.10
2022-11-19T06:29:16.200Z,1.10
2022-11-19T06:34:11.630Z,1.00
2022-11-19T06:36:42.721Z,1.00
2022-11-19T06:39:11.757Z,0.90
2022-11-19T06:41:38.429Z,0.90
2022-11-19T06:44:05.122Z,0.80
2022-11-19T06:46:31.892Z,0.80
2022-11-19T06:48:58.590Z,0.80
2022-11-19T06:51:25.330Z,0.80
2022-11-19T06:53:52.092Z,0.70
2022-11-19T06:56:18.975Z,0.70
2022-11-19T06:58:45.836Z,0.70
2022-11-19T07:01:14.424Z,0.70
2022-11-19T07:03:41.863Z,0.70
2022-11-19T07:06:08.657Z,0.70
2022-11-19T07:08:36.922Z,0.60
2022-11-19T07:11:24.242Z,0.50
2022-11-19T07:13:57.421Z,0.40
2022-11-19T07:16:33.528Z,0.30
2022-11-19T07:19:02.570Z,0.30
2022-11-19T07:21:29.878Z,0.20
2022-11-19T07:23:57.983Z,0.20
2022-11-19T07:26:25.383Z,0.20
2022-11-19T07:28:52.762Z,0.20
2022-11-19T07:31:19.647Z,0.10
2022-11-19T07:33:46.404Z,0.10
2022-11-19T07:36:18.067Z,0.10
2022-11-19T07:38:45.551Z,0.00
2022-11-19T07:41:30.969Z,0.00
2022-11-19T07:43:57.816Z,-0.10
2022-11-19T07:46:24.729Z,0.00
2022-11-19T07:48:55.730Z,0.00
2022-11-19T07:51:23.695Z,0.00
2022-11-19T07:53:50.690Z,-0.10
2022-11-19T07:56:18.283Z,-0.10
2022-11-19T07:58:45.277Z,-0.10
2022-11-19T08:01:18.531Z,-0.10
2022-11-19T08:03:55.786Z,-0.10
2022-11-19T08:06:27.877Z,-0.10
2022-11-19T08:08:56.326Z,-0.10
2022-11-19T08:11:23.739Z,-0.10
2022-11-19T08:13:51.142Z,-0.10
2022-11-19T08:16:39.928Z,0.00
2022-11-19T08:19:11.263Z,0.00
2022-11-19T08:21:41.423Z,0.00
2022-11-19T08:24:09.725Z,0.00
2022-11-19T08:26:37.085Z,-0.10
2022-11-19T08:29:04.828Z,0.00
2022-11-19T08:31:31.539Z,-0.10
2022-11-19T08:33:58.263Z,-0.10
2022-11-19T08:36:25.015Z,-0.10
2022-11-19T08:38:51.964Z,-0.10
2022-11-19T08:41:37.274Z,0.00
2022-11-19T08:44:04.062Z,0.00
2022-11-19T08:46:30.735Z,0.00
2022-11-19T08:48:57.450Z,0.00
2022-11-19T08:51:24.142Z,0.00
2022-11-19T08:53:53.932Z,0.00
2022-11-19T08:56:21.596Z,0.00
2022-11-19T08:58:48.508Z,0.10
2022-11-19T09:01:17.716Z,0.10
2022-11-19T09:03:45.249Z,0.10
2022-11-19T09:06:12.409Z,0.20
2022-11-19T09:08:40.425Z,0.20
2022-11-19T09:11:10.063Z,0.20
2022-11-19T09:13:37.104Z,0.20
2022-11-19T09:16:04.590Z,0.20
2022-11-19T09:18:32.127Z,0.20
2022-11-19T09:20:59.343Z,0.30
2022-11-19T09:23:27.305Z,0.30
2022-11-19T09:26:01.519Z,0.30
2022-11-19T09:28:29.157Z,0.30
2022-11-19T09:31:01.548Z,0.40
2022-11-19T09:33:30.547Z,0.40
2022-11-19T09:35:57.419Z,0.40
2022-11-19T09:38:24.127Z,0.50
2022-11-19T09:40:55.892Z,0.50
2022-11-19T09:43:34.881Z,0.50
2022-11-19T09:46:18.449Z,0.50
2022-11-19T09:48:45.691Z,0.60
2022-11-19T09:51:16.176Z,0.60
2022-11-19T09:53:51.492Z,0.70
2022-11-19T09:56:27.386Z,0.70
2022-11-19T09:58:56.940Z,0.80
2022-11-19T10:01:23.851Z,0.80
2022-11-19T10:03:53.358Z,0.80
2022-11-19T10:06:24.235Z,0.80
2022-11-19T10:09:25.143Z,0.90
2022-11-19T10:11:51.908Z,0.90
2022-11-19T10:14:47.997Z,1.00
2022-11-19T10:17:52.453Z,1.10
2022-11-19T10:20:53.981Z,1.10
2022-11-19T10:23:35.610Z,1.20
2022-11-19T10:26:08.866Z,1.20
2022-11-19T10:28:37.515Z,1.30
2022-11-19T10:31:33.545Z,1.30
2022-11-19T10:34:07.588Z,1.50
2022-11-19T10:36:50.544Z,1.50
2022-11-19T10:39:23.207Z,1.60
2022-11-19T10:41:55.936Z,1.60
2022-11-19T10:44:46.404Z,1.60
2022-11-19T10:47:23.072Z,1.70
2022-11-19T10:49:54.217Z,1.70
2022-11-19T10:52:41.220Z,1.80
2022-11-19T10:55:29.131Z,1.80
2022-11-19T10:58:24.603Z,1.90
2022-11-19T11:00:55.122Z,1.90
2022-11-19T11:03:31.500Z,2.00
2022-11-19T11:06:04.999Z,2.10
2022-11-19T11:08:54.049Z,2.10
2022-11-19T11:11:50.406Z,2.20
2022-11-19T11:14:41.852Z,2.20
2022-11-19T11:17:27.182Z,2.20
2022-11-19T11:20:04.956Z,2.30
2022-11-19T11:22:32.603Z,2.30
2022-11-19T11:25:06.833Z,2.40
2022-11-19T11:27:35.839Z,2.40
2022-11-19T11:30:11.909Z,2.50
2022-11-19T11:32:40.453Z,2.50
2022-11-19T11:35:31.152Z,2.60
2022-11-19T11:38:00.197Z,2.60
2022-11-19T11:40:27.547Z,2.70
2022-11-19T11:42:54.905Z,2.70
2022-11-19T11:45:36.263Z,2.70
2022-11-19T11:48:08.808Z,2.80
2022-11-19T11:50:37.208Z,2.90
2022-11-19T11:53:10.104Z,2.90
2022-11-19T11:55:38.681Z,2.90
2022-11-19T11:58:27.440Z,3.00
2022-11-19T12:00:56.117Z,3.00
2022-11-19T12:03:23.147Z,3.10
2022-11-19T12:06:12.188Z,3.10
2022-11-19T12:09:04.962Z,3.20
2022-11-19T12:11:59.831Z,3.20
2022-11-19T12:14:39.194Z,3.30
2022-11-19T12:17:25.723Z,3.30
2022-11-19T12:20:20.907Z,3.30
2022-11-19T12:23:15.430Z,3.40
2022-11-19T12:26:15.170Z,3.40
2022-11-19T12:29:24.677Z,3.40
2022-11-19T12:32:12.622Z,3.40
2022-11-19T12:34:53.052Z,3.40
2022-11-19T12:37:29.424Z,3.40
2022-11-19T12:40:15.041Z,3.40
2022-11-19T12:43:03.672Z,3.30
2022-11-19T12:45:59.129Z,3.30
2022-11-19T12:49:09.367Z,3.20
2022-11-19T12:51:52.442Z,3.20
2022-11-19T12:54:26.752Z,3.20
2022-11-19T12:57:29.704Z,3.20
2022-11-19T13:00:11.915Z,3.30
2022-11-19T13:03:12.265Z,3.30
2022-11-19T13:05:45.855Z,3.30
2022-11-19T13:08:25.719Z,3.30
2022-11-19T13:11:08.471Z,3.40
2022-11-19T13:13:38.866Z,3.20
2022-11-19T13:16:12.466Z,3.20
2022-11-19T13:18:44.139Z,3.30
2022-11-19T13:21:37.610Z,3.30
2022-11-19T13:24:26.109Z,3.30
2022-11-19T13:26:57.593Z,3.30
2022-11-19T13:29:45.108Z,3.30
2022-11-19T13:32:24.587Z,3.30
2022-11-19T13:35:01.236Z,3.40
2022-11-19T13:37:47.906Z,3.40
2022-11-19T13:40:39.548Z,3.30
2022-11-19T13:43:33.037Z,3.30
2022-11-19T13:46:16.538Z,3.30
2022-11-19T13:48:58.095Z,3.30
2022-11-19T13:51:24.851Z,3.30
2022-11-19T13:53:52.256Z,3.30
2022-11-19T13:56:21.701Z,3.20
2022-11-19T13:58:54.537Z,3.30
2022-11-19T14:01:39.586Z,3.20
2022-11-19T14:04:18.708Z,3.20
2022-11-19T14:07:13.085Z,3.20
2022-11-19T14:09:42.827Z,3.20
2022-11-19T14:12:21.301Z,3.20
2022-11-19T14:15:12.807Z,3.10
2022-11-19T14:18:10.322Z,3.10
2022-11-19T14:21:03.645Z,3.10
2022-11-19T14:24:08.520Z,3.10
2022-11-19T14:26:40.986Z,3.10
2022-11-19T14:29:25.899Z,3.10
2022-11-19T14:32:12.820Z,3.10
2022-11-19T14:35:07.472Z,3.00
2022-11-19T14:37:36.975Z,3.00
2022-11-19T14:40:12.606Z,2.90
2022-11-19T14:43:30.918Z,2.90
2022-11-19T14:46:04.346Z,2.90
2022-11-19T14:48:39.976Z,2.90
2022-11-19T14:51:18.934Z,2.90
2022-11-19T14:53:50.027Z,2.90
2022-11-19T14:56:21.080Z,2.90
2022-11-19T14:58:54.582Z,2.80
2022-11-19T15:01:23.130Z,2.80
2022-11-19T15:03:58.017Z,2.70
2022-11-19T15:06:25.531Z,2.70
2022-11-19T15:08:54.525Z,2.60
2022-11-19T15:11:21.312Z,2.60
2022-11-19T15:14:08.937Z,2.50
2022-11-19T15:16:36.558Z,2.50
2022-11-19T15:19:24.783Z,2.40
2022-11-19T15:21:54.617Z,2.40
2022-11-19T15:24:30.369Z,2.40
2022-11-19T15:27:06.222Z,2.30
2022-11-19T15:30:11.585Z,2.30
2022-11-19T15:33:15.787Z,2.20
2022-11-19T15:36:01.287Z,2.10
2022-11-19T15:38:52.009Z,2.10
2022-11-19T15:41:24.120Z,2.00
2022-11-19T15:43:55.793Z,2.00
2022-11-19T15:46:44.082Z,1.90
2022-11-19T15:49:11.011Z,1.90
2022-11-19T15:52:01.949Z,1.90
2022-11-19T15:54:36.662Z,1.80
2022-11-19T15:57:20.237Z,1.70
2022-11-19T15:59:54.448Z,1.70
2022-11-19T16:02:42.577Z,1.60
2022-11-19T16:05:18.511Z,1.50
2022-11-19T16:07:46.911Z,1.40
2022-11-19T16:10:25.067Z,1.40
2022-11-19T16:13:22.057Z,1.30
2022-11-19T16:16:12.346Z,1.20
2022-11-19T16:19:05.526Z,1.20
2022-11-19T16:21:36.127Z,1.20
2022-11-19T16:24:21.852Z,1.10
2022-11-19T16:26:49.103Z,1.20
2022-11-19T16:29:25.265Z,1.10
2022-11-19T16:31:56.469Z,1.10
2022-11-19T16:34:25.625Z,1.10
2022-11-19T16:36:53.228Z,1.10
2022-11-19T16:39:24.419Z,1.10
2022-11-19T16:42:14.297Z,1.00
2022-11-19T16:44:44.414Z,1.00
2022-11-19T16:47:37.991Z,1.00
2022-11-19T16:50:12.463Z,1.00
2022-11-19T16:52:42.132Z,0.90
2022-11-19T16:55:17.953Z,0.90
2022-11-19T16:57:51.870Z,0.90
2022-11-19T17:00:21.476Z,0.80
2022-11-19T17:02:50.484Z,0.70
2022-11-19T17:05:18.931Z,0.70
2022-11-19T17:07:51.966Z,0.60
2022-11-19T17:10:24.962Z,0.50
2022-11-19T17:12:53.894Z,0.50
2022-11-19T17:15:43.513Z,0.40
2022-11-19T17:18:10.234Z,0.40
2022-11-19T17:20:36.950Z,0.30
2022-11-19T17:23:30.060Z,0.30
2022-11-19T17:25:58.157Z,0.30
2022-11-19T17:28:52.307Z,0.20
2022-11-19T17:31:24.090Z,0.20
2022-11-19T17:34:07.059Z,0.10
2022-11-19T17:36:36.755Z,0.10
2022-11-19T17:39:11.993Z,0.00
2022-11-19T17:41:57.977Z,0.00
2022-11-19T17:44:36.480Z,0.00
2022-11-19T17:47:21.128Z,0.00
2022-11-19T17:49:49.581Z,-0.10
2022-11-19T17:52:22.691Z,-0.10
2022-11-19T17:54:50.807Z,-0.20
2022-11-19T17:57:17.670Z,-0.20
2022-11-19T17:59:44.455Z,-0.20
2022-11-19T18:02:16.104Z,-0.30
2022-11-19T18:04:44.199Z,-0.30
2022-11-19T18:07:12.364Z,-0.30
2022-11-19T18:09:40.456Z,-0.50
2022-11-19T18:12:12.465Z,-0.40
2022-11-19T18:14:39.172Z,-0.40
2022-11-19T18:17:06.014Z,-0.40
2022-11-19T18:19:33.657Z,-0.50
2022-11-19T18:22:00.387Z,-0.50
2022-11-19T18:24:27.368Z,-0.50
2022-11-19T18:26:54.201Z,-0.50
2022-11-19T18:29:21.430Z,-0.50
2022-11-19T18:31:50.953Z,-0.50
2022-11-19T18:34:22.788Z,-0.60
2022-11-19T18:36:50.740Z,-0.60
2022-11-19T18:39:17.513Z,-0.70
2022-11-19T18:41:44.252Z,-0.70
2022-11-19T18:44:34.761Z,-0.70
2022-11-19T18:47:12.848Z,-0.80
2022-11-19T18:49:40.028Z,-0.80
2022-11-19T18:52:08.953Z,-0.80
2022-11-19T18:54:35.651Z,-0.80
2022-11-19T18:57:02.656Z,-0.90
2022-11-19T18:59:30.141Z,-0.80
2022-11-19T19:01:57.134Z,-0.90
2022-11-19T19:04:24.234Z,-0.90
2022-11-19T19:06:51.303Z,-0.90
2022-11-19T19:09:21.805Z,-0.90
2022-11-19T19:12:13.082Z,-1.00
2022-11-19T19:14:41.582Z,-1.00
2022-11-19T19:17:08.338Z,-1.00
2022-11-19T19:19:35.644Z,-1.00
2022-11-19T19:22:02.468Z,-1.10
2022-11-19T19:24:29.436Z,-0.90
2022-11-19T19:26:56.147Z,-0.90
2022-11-19T19:29:23.258Z,-0.90
2022-11-19T19:31:50.246Z,-1.00
2022-11-19T19:34:17.197Z,-1.00
2022-11-19T19:36:47.648Z,-1.00
2022-11-19T19:39:17.024Z,-1.10
2022-11-19T19:41:43.954Z,-1.10
2022-11-19T19:44:11.041Z,-1.10
2022-11-19T19:46:37.927Z,-1.20
2022-11-19T19:49:04.712Z,-1.20
2022-11-19T19:51:32.860Z,-1.20
2022-11-19T19:54:00.408Z,-1.20
2022-11-19T19:56:29.701Z,-1.30
2022-11-19T19:58:57.343Z,-1.30
2022-11-19T20:01:26.806Z,-1.30
2022-11-19T20:03:55.090Z,-1.40
2022-11-19T20:06:23.559Z,-1.40
2022-11-19T20:08:50.523Z,-1.40
2022-11-19T20:11:20.481Z,-1.40
2022-11-19T20:13:47.726Z,-1.50
2022-11-19T20:16:18.581Z,-1.50
2022-11-19T20:18:47.114Z,-1.50
2022-11-19T20:21:20.767Z,-1.50
2022-11-19T20:23:47.801Z,-1.50
2022-11-19T20:26:17.541Z,-1.60
2022-11-19T20:28:45.898Z,-1.60
2022-11-19T20:31:18.317Z,-1.60
2022-11-19T20:33:47.012Z,-1.60
2022-11-19T20:36:15.542Z,-1.70
2022-11-19T20:38:45.918Z,-1.70
2022-11-19T20:41:33.496Z,-1.70
2022-11-19T20:44:19.963Z,-1.80
2022-11-19T20:46:54.913Z,-1.70
2022-11-19T20:49:31.179Z,-1.70
2022-11-19T20:51:58.290Z,-1.80
2022-11-19T20:54:26.667Z,-1.80
2022-11-19T20:56:54.862Z,-1.80
2022-11-19T20:59:22.424Z,-1.80
2022-11-19T21:01:50.656Z,-1.80
2022-11-19T21:04:18.846Z,-1.90
2022-11-19T21:06:46.284Z,-1.80
2022-11-19T21:09:15.723Z,-1.90
2022-11-19T21:11:43.265Z,-1.90
2022-11-19T21:14:10.123Z,-1.90
2022-11-19T21:16:39.676Z,-1.90
2022-11-19T21:19:06.585Z,-1.90
2022-11-19T21:21:33.397Z,-2.00
2022-11-19T21:24:00.166Z,-2.00
2022-11-19T21:26:28.255Z,-2.00
2022-11-19T21:28:57.129Z,-2.00
2022-11-19T21:31:38.726Z,-2.00
2022-11-19T21:34:08.078Z,-2.00
2022-11-19T21:36:35.806Z,-2.10
2022-11-19T21:39:03.823Z,-2.10
2022-11-19T21:41:30.544Z,-2.10
2022-11-19T21:43:57.250Z,-2.10
2022-11-19T21:46:24.091Z,-2.10
2022-11-19T21:48:50.834Z,-2.10
2022-11-19T21:51:23.024Z,-2.10
2022-11-19T21:53:54.072Z,-2.20
2022-11-19T21:56:21.067Z,-2.10
2022-11-19T21:58:47.832Z,-2.20
2022-11-19T22:01:14.799Z,-2.20
2022-11-19T22:03:41.512Z,-2.20
2022-11-19T22:06:10.812Z,-2.20
2022-11-19T22:08:39.897Z,-2.30
2022-11-19T22:11:37.704Z,-2.30
2022-11-19T22:14:07.199Z,-2.30
2022-11-19T22:16:36.700Z,-2.30
2022-11-19T22:19:05.570Z,-2.30
2022-11-19T22:21:32.708Z,-2.30
2022-11-19T22:23:59.886Z,-2.40
2022-11-19T22:26:26.620Z,-2.40
2022-11-19T22:28:53.806Z,-2.40
2022-11-19T22:31:20.632Z,-2.40
2022-11-19T22:33:51.907Z,-2.40
2022-11-19T22:36:20.239Z,-2.40
2022-11-19T22:38:47.005Z,-2.40
2022-11-19T22:41:16.601Z,-2.40
2022-11-19T22:43:44.180Z,-2.40
2022-11-19T22:46:13.355Z,-2.50
2022-11-19T22:48:40.712Z,-2.50
2022-11-19T22:51:22.538Z,-2.50
2022-11-19T22:53:51.321Z,-2.50
2022-11-19T22:56:21.786Z,-2.50
2022-11-19T22:58:49.823Z,-2.50
2022-11-19T23:01:26.594Z,-2.50
2022-11-19T23:03:54.606Z,-2.50
2022-11-19T23:06:22.952Z,-2.60
2022-11-19T23:08:53.217Z,-2.60
2022-11-19T23:11:42.355Z,-2.60
2022-11-19T23:14:11.919Z,-2.60
2022-11-19T23:16:42.537Z,-2.60
2022-11-19T23:19:13.137Z,-2.60
2022-11-19T23:21:41.280Z,-2.60
2022-11-19T23:24:09.560Z,-2.60
2022-11-19T23:26:36.703Z,-2.60
2022-11-19T23:29:04.309Z,-2.70
2022-11-19T23:31:33.780Z,-2.70
2022-11-19T23:34:00.642Z,-2.70
2022-11-19T23:36:38.861Z,-2.70
2022-11-19T23:39:10.314Z,-2.70
2022-11-19T23:41:37.127Z,-2.70
2022-11-19T23:44:04.061Z,-2.70
2022-11-19T23:46:35.591Z,-2.70
2022-11-19T23:49:03.390Z,-2.70
2022-11-19T23:51:32.806Z,-2.70
2022-11-19T23:54:00.766Z,-2.70
2022-11-19T23:56:29.861Z,-2.70
2022-11-19T23:58:58.934Z,-2.80
